sensor_id;sensor_type;location;lat;lon;timestamp;P1;durP1;ratioP1;P2;durP2;ratioP2
11386;SDS011;5748;53.102;8.456;2023-02-22T00:02:00;6.73;;;5.10;;
11386;SDS011;5748;53.102;8.456;2023-02-22T00:04:49;6.33;;;5.17;;
11386;SDS011;5748;53.102;8.456;2023-02-22T00:07:16;7.23;;;5.50;;
11386;SDS011;5748;53.102;8.456;2023-02-22T00:09:46;7.17;;;5.83;;
11386;SDS011;5748;53.102;8.456;2023-02-22T00:12:13;8.27;;;6.33;;
11386;SDS011;5748;53.102;8.456;2023-02-22T00:14:42;7.23;;;5.63;;
11386;SDS011;5748;53.102;8.456;2023-02-22T00:17:09;7.17;;;5.47;;
11386;SDS011;5748;53.102;8.456;2023-02-22T00:19:37;6.57;;;5.37;;
11386;SDS011;5748;53.102;8.456;2023-02-22T00:22:04;7.57;;;6.40;;
11386;SDS011;5748;53.102;8.456;2023-02-22T00:24:38;7.20;;;5.33;;
11386;SDS011;5748;53.102;8.456;2023-02-22T00:27:05;7.70;;;5.33;;
11386;SDS011;5748;53.102;8.456;2023-02-22T00:29:32;8.60;;;5.87;;
11386;SDS011;5748;53.102;8.456;2023-02-22T00:32:09;6.73;;;5.37;;
11386;SDS011;5748;53.102;8.456;2023-02-22T00:34:36;6.17;;;5.17;;
11386;SDS011;5748;53.102;8.456;2023-02-22T00:37:03;7.33;;;5.83;;
11386;SDS011;5748;53.102;8.456;2023-02-22T00:39:30;8.00;;;6.17;;
11386;SDS011;5748;53.102;8.456;2023-02-22T00:41:59;6.87;;;5.87;;
11386;SDS011;5748;53.102;8.456;2023-02-22T00:44:26;7.47;;;5.80;;
11386;SDS011;5748;53.102;8.456;2023-02-22T00:46:53;7.20;;;5.37;;
11386;SDS011;5748;53.102;8.456;2023-02-22T00:49:22;7.90;;;6.37;;
11386;SDS011;5748;53.102;8.456;2023-02-22T00:51:51;8.57;;;6.73;;
11386;SDS011;5748;53.102;8.456;2023-02-22T00:54:18;9.17;;;6.83;;
11386;SDS011;5748;53.102;8.456;2023-02-22T00:56:45;8.87;;;6.60;;
11386;SDS011;5748;53.102;8.456;2023-02-22T00:59:14;9.83;;;7.00;;
11386;SDS011;5748;53.102;8.456;2023-02-22T01:01:47;9.53;;;6.80;;
11386;SDS011;5748;53.102;8.456;2023-02-22T01:04:14;9.67;;;7.33;;
11386;SDS011;5748;53.102;8.456;2023-02-22T01:06:50;9.27;;;6.60;;
11386;SDS011;5748;53.102;8.456;2023-02-22T01:09:18;9.47;;;6.50;;
11386;SDS011;5748;53.102;8.456;2023-02-22T01:11:45;8.33;;;6.43;;
11386;SDS011;5748;53.102;8.456;2023-02-22T01:14:19;9.80;;;7.40;;
11386;SDS011;5748;53.102;8.456;2023-02-22T01:16:48;9.67;;;6.90;;
11386;SDS011;5748;53.102;8.456;2023-02-22T01:19:15;8.40;;;6.47;;
11386;SDS011;5748;53.102;8.456;2023-02-22T01:21:43;8.87;;;6.50;;
11386;SDS011;5748;53.102;8.456;2023-02-22T01:24:12;9.67;;;6.90;;
11386;SDS011;5748;53.102;8.456;2023-02-22T01:26:40;8.47;;;6.53;;
11386;SDS011;5748;53.102;8.456;2023-02-22T01:29:08;8.47;;;6.43;;
11386;SDS011;5748;53.102;8.456;2023-02-22T01:31:39;8.33;;;6.10;;
11386;SDS011;5748;53.102;8.456;2023-02-22T01:36:46;7.80;;;6.10;;
11386;SDS011;5748;53.102;8.456;2023-02-22T01:42:04;7.70;;;6.00;;
11386;SDS011;5748;53.102;8.456;2023-02-22T01:44:34;8.57;;;6.47;;
11386;SDS011;5748;53.102;8.456;2023-02-22T01:47:04;6.57;;;5.70;;
11386;SDS011;5748;53.102;8.456;2023-02-22T01:49:34;7.07;;;5.67;;
11386;SDS011;5748;53.102;8.456;2023-02-22T01:55:09;6.93;;;5.50;;
11386;SDS011;5748;53.102;8.456;2023-02-22T01:57:36;7.50;;;6.07;;
11386;SDS011;5748;53.102;8.456;2023-02-22T02:00:05;6.97;;;5.53;;
11386;SDS011;5748;53.102;8.456;2023-02-22T02:02:36;6.93;;;5.50;;
11386;SDS011;5748;53.102;8.456;2023-02-22T02:05:04;8.20;;;6.53;;
11386;SDS011;5748;53.102;8.456;2023-02-22T02:07:33;6.40;;;5.57;;
11386;SDS011;5748;53.102;8.456;2023-02-22T02:10:03;7.73;;;6.00;;
11386;SDS011;5748;53.102;8.456;2023-02-22T02:12:40;7.63;;;6.10;;
11386;SDS011;5748;53.102;8.456;2023-02-22T02:15:20;7.40;;;5.53;;
11386;SDS011;5748;53.102;8.456;2023-02-22T02:17:50;6.87;;;5.23;;
11386;SDS011;5748;53.102;8.456;2023-02-22T02:20:23;6.47;;;5.27;;
11386;SDS011;5748;53.102;8.456;2023-02-22T02:23:01;6.07;;;5.47;;
11386;SDS011;5748;53.102;8.456;2023-02-22T02:34:59;7.30;;;5.60;;
11386;SDS011;5748;53.102;8.456;2023-02-22T02:37:36;6.80;;;5.13;;
11386;SDS011;5748;53.102;8.456;2023-02-22T02:43:08;7.03;;;5.53;;
11386;SDS011;5748;53.102;8.456;2023-02-22T02:45:43;7.83;;;5.83;;
11386;SDS011;5748;53.102;8.456;2023-02-22T02:48:17;6.30;;;5.20;;
11386;SDS011;5748;53.102;8.456;2023-02-22T02:50:51;6.90;;;5.47;;
11386;SDS011;5748;53.102;8.456;2023-02-22T02:53:30;6.87;;;5.40;;
11386;SDS011;5748;53.102;8.456;2023-02-22T02:56:01;6.90;;;5.60;;
11386;SDS011;5748;53.102;8.456;2023-02-22T02:58:29;7.40;;;5.87;;
11386;SDS011;5748;53.102;8.456;2023-02-22T03:00:57;6.37;;;5.53;;
11386;SDS011;5748;53.102;8.456;2023-02-22T03:06:38;6.00;;;5.30;;
11386;SDS011;5748;53.102;8.456;2023-02-22T03:09:37;6.30;;;5.30;;
11386;SDS011;5748;53.102;8.456;2023-02-22T03:12:21;6.33;;;5.37;;
11386;SDS011;5748;53.102;8.456;2023-02-22T03:15:03;5.80;;;4.83;;
11386;SDS011;5748;53.102;8.456;2023-02-22T03:17:42;7.13;;;5.03;;
11386;SDS011;5748;53.102;8.456;2023-02-22T03:20:17;6.70;;;5.33;;
11386;SDS011;5748;53.102;8.456;2023-02-22T03:23:05;6.20;;;5.40;;
11386;SDS011;5748;53.102;8.456;2023-02-22T03:25:42;6.70;;;5.37;;
11386;SDS011;5748;53.102;8.456;2023-02-22T03:28:15;5.80;;;5.13;;
11386;SDS011;5748;53.102;8.456;2023-02-22T03:30:45;6.10;;;5.33;;
11386;SDS011;5748;53.102;8.456;2023-02-22T03:33:21;5.63;;;5.00;;
11386;SDS011;5748;53.102;8.456;2023-02-22T03:36:01;6.57;;;5.00;;
11386;SDS011;5748;53.102;8.456;2023-02-22T03:38:35;6.70;;;5.17;;
11386;SDS011;5748;53.102;8.456;2023-02-22T03:41:05;5.70;;;5.07;;
11386;SDS011;5748;53.102;8.456;2023-02-22T03:43:35;6.07;;;5.10;;
11386;SDS011;5748;53.102;8.456;2023-02-22T03:46:09;7.03;;;5.43;;
11386;SDS011;5748;53.102;8.456;2023-02-22T03:48:39;6.57;;;5.43;;
11386;SDS011;5748;53.102;8.456;2023-02-22T03:51:13;5.87;;;4.83;;
11386;SDS011;5748;53.102;8.456;2023-02-22T03:53:41;6.53;;;5.33;;
11386;SDS011;5748;53.102;8.456;2023-02-22T03:56:10;5.83;;;5.07;;
11386;SDS011;5748;53.102;8.456;2023-02-22T03:58:45;6.30;;;5.30;;
11386;SDS011;5748;53.102;8.456;2023-02-22T04:01:15;6.03;;;4.93;;
11386;SDS011;5748;53.102;8.456;2023-02-22T04:03:47;6.40;;;5.30;;
11386;SDS011;5748;53.102;8.456;2023-02-22T04:06:16;5.83;;;5.17;;
11386;SDS011;5748;53.102;8.456;2023-02-22T04:08:43;6.00;;;4.93;;
11386;SDS011;5748;53.102;8.456;2023-02-22T04:11:10;5.80;;;4.90;;
11386;SDS011;5748;53.102;8.456;2023-02-22T04:13:37;5.40;;;4.77;;
11386;SDS011;5748;53.102;8.456;2023-02-22T04:16:04;6.30;;;5.13;;
11386;SDS011;5748;53.102;8.456;2023-02-22T04:18:32;5.33;;;4.53;;
11386;SDS011;5748;53.102;8.456;2023-02-22T04:21:04;6.77;;;5.23;;
11386;SDS011;5748;53.102;8.456;2023-02-22T04:23:34;6.33;;;5.07;;
11386;SDS011;5748;53.102;8.456;2023-02-22T04:26:01;6.30;;;5.23;;
11386;SDS011;5748;53.102;8.456;2023-02-22T04:28:28;5.77;;;4.73;;
11386;SDS011;5748;53.102;8.456;2023-02-22T04:30:55;6.37;;;5.27;;
11386;SDS011;5748;53.102;8.456;2023-02-22T04:33:22;6.40;;;5.60;;
11386;SDS011;5748;53.102;8.456;2023-02-22T04:35:49;6.60;;;5.50;;
11386;SDS011;5748;53.102;8.456;2023-02-22T04:38:16;5.53;;;4.90;;
11386;SDS011;5748;53.102;8.456;2023-02-22T04:40:45;6.03;;;4.90;;
11386;SDS011;5748;53.102;8.456;2023-02-22T04:43:12;6.73;;;5.23;;
11386;SDS011;5748;53.102;8.456;2023-02-22T04:45:39;6.20;;;5.13;;
11386;SDS011;5748;53.102;8.456;2023-02-22T04:48:06;5.87;;;5.10;;
11386;SDS011;5748;53.102;8.456;2023-02-22T04:50:39;6.13;;;5.20;;
11386;SDS011;5748;53.102;8.456;2023-02-22T04:53:06;6.10;;;5.13;;
11386;SDS011;5748;53.102;8.456;2023-02-22T04:55:33;6.47;;;5.33;;
11386;SDS011;5748;53.102;8.456;2023-02-22T04:58:02;6.33;;;4.93;;
11386;SDS011;5748;53.102;8.456;2023-02-22T05:00:29;6.60;;;5.23;;
11386;SDS011;5748;53.102;8.456;2023-02-22T05:02:56;6.47;;;5.77;;
11386;SDS011;5748;53.102;8.456;2023-02-22T05:05:24;6.77;;;5.40;;
11386;SDS011;5748;53.102;8.456;2023-02-22T05:07:50;6.23;;;5.43;;
11386;SDS011;5748;53.102;8.456;2023-02-22T05:10:18;6.50;;;5.33;;
11386;SDS011;5748;53.102;8.456;2023-02-22T05:12:46;6.80;;;5.73;;
11386;SDS011;5748;53.102;8.456;2023-02-22T05:15:15;6.73;;;5.67;;
11386;SDS011;5748;53.102;8.456;2023-02-22T05:17:44;7.10;;;6.03;;
11386;SDS011;5748;53.102;8.456;2023-02-22T05:20:15;6.70;;;5.70;;
11386;SDS011;5748;53.102;8.456;2023-02-22T05:22:48;6.57;;;5.87;;
11386;SDS011;5748;53.102;8.456;2023-02-22T05:25:16;6.70;;;5.60;;
11386;SDS011;5748;53.102;8.456;2023-02-22T05:30:43;6.47;;;5.43;;
11386;SDS011;5748;53.102;8.456;2023-02-22T05:33:10;6.23;;;5.50;;
11386;SDS011;5748;53.102;8.456;2023-02-22T05:35:37;6.53;;;5.13;;
11386;SDS011;5748;53.102;8.456;2023-02-22T05:38:05;7.03;;;5.70;;
11386;SDS011;5748;53.102;8.456;2023-02-22T05:40:32;6.73;;;5.73;;
11386;SDS011;5748;53.102;8.456;2023-02-22T05:43:00;7.27;;;6.30;;
11386;SDS011;5748;53.102;8.456;2023-02-22T05:45:27;7.07;;;5.47;;
11386;SDS011;5748;53.102;8.456;2023-02-22T05:47:56;8.40;;;6.43;;
11386;SDS011;5748;53.102;8.456;2023-02-22T05:53:22;7.57;;;6.07;;
11386;SDS011;5748;53.102;8.456;2023-02-22T05:55:50;7.37;;;5.97;;
11386;SDS011;5748;53.102;8.456;2023-02-22T05:58:18;8.50;;;6.73;;
11386;SDS011;5748;53.102;8.456;2023-02-22T06:00:44;7.87;;;6.03;;
11386;SDS011;5748;53.102;8.456;2023-02-22T06:03:15;8.23;;;6.50;;
11386;SDS011;5748;53.102;8.456;2023-02-22T06:05:42;8.33;;;6.87;;
11386;SDS011;5748;53.102;8.456;2023-02-22T06:08:10;9.30;;;7.17;;
11386;SDS011;5748;53.102;8.456;2023-02-22T06:10:37;9.00;;;6.90;;
11386;SDS011;5748;53.102;8.456;2023-02-22T06:13:05;8.53;;;6.73;;
11386;SDS011;5748;53.102;8.456;2023-02-22T06:15:34;9.77;;;7.13;;
11386;SDS011;5748;53.102;8.456;2023-02-22T06:18:01;8.97;;;7.13;;
11386;SDS011;5748;53.102;8.456;2023-02-22T06:20:30;9.03;;;7.37;;
11386;SDS011;5748;53.102;8.456;2023-02-22T06:22:59;8.20;;;6.40;;
11386;SDS011;5748;53.102;8.456;2023-02-22T06:25:28;8.13;;;6.30;;
11386;SDS011;5748;53.102;8.456;2023-02-22T06:31:03;8.03;;;6.17;;
11386;SDS011;5748;53.102;8.456;2023-02-22T06:33:31;9.20;;;6.63;;
11386;SDS011;5748;53.102;8.456;2023-02-22T06:36:00;8.47;;;6.73;;
11386;SDS011;5748;53.102;8.456;2023-02-22T06:38:27;8.33;;;6.37;;
11386;SDS011;5748;53.102;8.456;2023-02-22T06:40:55;7.37;;;6.03;;
11386;SDS011;5748;53.102;8.456;2023-02-22T06:43:29;7.77;;;6.13;;
11386;SDS011;5748;53.102;8.456;2023-02-22T06:45:57;9.47;;;6.87;;
11386;SDS011;5748;53.102;8.456;2023-02-22T06:48:24;7.80;;;6.07;;
11386;SDS011;5748;53.102;8.456;2023-02-22T06:53:37;7.63;;;5.97;;
11386;SDS011;5748;53.102;8.456;2023-02-22T06:56:15;9.07;;;6.50;;
11386;SDS011;5748;53.102;8.456;2023-02-22T06:58:42;8.13;;;5.77;;
11386;SDS011;5748;53.102;8.456;2023-02-22T07:01:09;9.20;;;6.53;;
11386;SDS011;5748;53.102;8.456;2023-02-22T07:03:36;8.33;;;6.07;;
11386;SDS011;5748;53.102;8.456;2023-02-22T07:09:20;7.67;;;5.90;;
11386;SDS011;5748;53.102;8.456;2023-02-22T07:11:47;8.67;;;6.87;;
11386;SDS011;5748;53.102;8.456;2023-02-22T07:14:15;8.53;;;6.20;;
11386;SDS011;5748;53.102;8.456;2023-02-22T07:16:42;8.53;;;6.23;;
11386;SDS011;5748;53.102;8.456;2023-02-22T07:19:09;7.87;;;5.97;;
11386;SDS011;5748;53.102;8.456;2023-02-22T07:21:49;8.50;;;6.23;;
11386;SDS011;5748;53.102;8.456;2023-02-22T07:24:24;8.20;;;6.03;;
11386;SDS011;5748;53.102;8.456;2023-02-22T07:26:52;7.97;;;6.23;;
11386;SDS011;5748;53.102;8.456;2023-02-22T07:29:27;9.63;;;6.87;;
11386;SDS011;5748;53.102;8.456;2023-02-22T07:31:55;7.53;;;5.73;;
11386;SDS011;5748;53.102;8.456;2023-02-22T07:34:22;7.93;;;5.57;;
11386;SDS011;5748;53.102;8.456;2023-02-22T07:36:58;7.97;;;6.03;;
11386;SDS011;5748;53.102;8.456;2023-02-22T07:39:26;7.17;;;5.47;;
11386;SDS011;5748;53.102;8.456;2023-02-22T07:41:53;7.90;;;5.37;;
11386;SDS011;5748;53.102;8.456;2023-02-22T07:44:20;8.70;;;6.03;;
11386;SDS011;5748;53.102;8.456;2023-02-22T07:46:47;8.23;;;5.90;;
11386;SDS011;5748;53.102;8.456;2023-02-22T07:49:15;7.63;;;5.50;;
11386;SDS011;5748;53.102;8.456;2023-02-22T07:51:46;6.93;;;5.40;;
11386;SDS011;5748;53.102;8.456;2023-02-22T07:57:07;8.47;;;6.20;;
11386;SDS011;5748;53.102;8.456;2023-02-22T07:59:37;7.30;;;5.27;;
11386;SDS011;5748;53.102;8.456;2023-02-22T08:02:04;7.97;;;5.70;;
11386;SDS011;5748;53.102;8.456;2023-02-22T08:04:36;6.33;;;4.70;;
11386;SDS011;5748;53.102;8.456;2023-02-22T08:07:08;6.80;;;5.30;;
11386;SDS011;5748;53.102;8.456;2023-02-22T08:09:35;6.87;;;5.23;;
11386;SDS011;5748;53.102;8.456;2023-02-22T08:12:07;6.60;;;5.27;;
11386;SDS011;5748;53.102;8.456;2023-02-22T08:14:34;7.33;;;5.00;;
11386;SDS011;5748;53.102;8.456;2023-02-22T08:17:01;6.33;;;4.63;;
11386;SDS011;5748;53.102;8.456;2023-02-22T08:19:28;5.87;;;4.63;;
11386;SDS011;5748;53.102;8.456;2023-02-22T08:21:55;6.03;;;4.30;;
11386;SDS011;5748;53.102;8.456;2023-02-22T08:24:22;5.53;;;4.50;;
11386;SDS011;5748;53.102;8.456;2023-02-22T08:26:49;6.53;;;4.90;;
11386;SDS011;5748;53.102;8.456;2023-02-22T08:29:18;5.97;;;4.53;;
11386;SDS011;5748;53.102;8.456;2023-02-22T08:31:49;5.33;;;4.40;;
11386;SDS011;5748;53.102;8.456;2023-02-22T08:34:17;5.83;;;4.50;;
11386;SDS011;5748;53.102;8.456;2023-02-22T08:36:44;6.50;;;4.77;;
11386;SDS011;5748;53.102;8.456;2023-02-22T08:39:13;6.00;;;4.70;;
11386;SDS011;5748;53.102;8.456;2023-02-22T08:41:40;6.50;;;5.03;;
11386;SDS011;5748;53.102;8.456;2023-02-22T08:44:07;6.30;;;4.97;;
11386;SDS011;5748;53.102;8.456;2023-02-22T08:46:36;6.57;;;5.10;;
11386;SDS011;5748;53.102;8.456;2023-02-22T08:49:03;7.03;;;5.27;;
11386;SDS011;5748;53.102;8.456;2023-02-22T08:51:33;6.87;;;5.20;;
11386;SDS011;5748;53.102;8.456;2023-02-22T08:54:01;6.90;;;5.23;;
11386;SDS011;5748;53.102;8.456;2023-02-22T08:56:30;6.73;;;4.83;;
11386;SDS011;5748;53.102;8.456;2023-02-22T08:58:58;7.40;;;5.57;;
11386;SDS011;5748;53.102;8.456;2023-02-22T09:01:25;6.33;;;4.93;;
11386;SDS011;5748;53.102;8.456;2023-02-22T09:03:54;5.80;;;4.67;;
11386;SDS011;5748;53.102;8.456;2023-02-22T09:06:21;5.67;;;4.60;;
11386;SDS011;5748;53.102;8.456;2023-02-22T09:08:49;5.73;;;4.77;;
11386;SDS011;5748;53.102;8.456;2023-02-22T09:11:16;5.43;;;4.37;;
11386;SDS011;5748;53.102;8.456;2023-02-22T09:13:43;5.37;;;4.60;;
11386;SDS011;5748;53.102;8.456;2023-02-22T09:16:10;5.33;;;4.30;;
11386;SDS011;5748;53.102;8.456;2023-02-22T09:18:38;6.10;;;4.70;;
11386;SDS011;5748;53.102;8.456;2023-02-22T09:21:06;5.50;;;4.73;;
11386;SDS011;5748;53.102;8.456;2023-02-22T09:23:33;5.97;;;4.30;;
11386;SDS011;5748;53.102;8.456;2023-02-22T09:26:00;5.43;;;4.20;;
11386;SDS011;5748;53.102;8.456;2023-02-22T09:28:27;5.50;;;4.37;;
11386;SDS011;5748;53.102;8.456;2023-02-22T09:30:54;5.93;;;4.50;;
11386;SDS011;5748;53.102;8.456;2023-02-22T09:33:21;6.23;;;5.10;;
11386;SDS011;5748;53.102;8.456;2023-02-22T09:35:50;6.77;;;5.23;;
11386;SDS011;5748;53.102;8.456;2023-02-22T09:38:19;7.37;;;5.40;;
11386;SDS011;5748;53.102;8.456;2023-02-22T09:40:49;6.13;;;4.93;;
11386;SDS011;5748;53.102;8.456;2023-02-22T09:43:23;6.13;;;4.80;;
11386;SDS011;5748;53.102;8.456;2023-02-22T09:46:04;6.03;;;4.87;;
11386;SDS011;5748;53.102;8.456;2023-02-22T09:48:45;6.70;;;5.37;;
11386;SDS011;5748;53.102;8.456;2023-02-22T09:51:30;6.83;;;5.10;;
11386;SDS011;5748;53.102;8.456;2023-02-22T09:54:09;5.80;;;4.60;;
11386;SDS011;5748;53.102;8.456;2023-02-22T09:56:44;5.67;;;4.77;;
11386;SDS011;5748;53.102;8.456;2023-02-22T09:59:14;5.30;;;4.67;;
11386;SDS011;5748;53.102;8.456;2023-02-22T10:01:48;6.53;;;5.23;;
11386;SDS011;5748;53.102;8.456;2023-02-22T10:04:23;5.23;;;4.47;;
11386;SDS011;5748;53.102;8.456;2023-02-22T10:06:58;7.77;;;5.80;;
11386;SDS011;5748;53.102;8.456;2023-02-22T10:09:35;5.77;;;4.90;;
11386;SDS011;5748;53.102;8.456;2023-02-22T10:12:08;6.30;;;5.23;;
11386;SDS011;5748;53.102;8.456;2023-02-22T10:17:57;5.77;;;4.53;;
11386;SDS011;5748;53.102;8.456;2023-02-22T10:20:46;8.60;;;6.57;;
11386;SDS011;5748;53.102;8.456;2023-02-22T10:23:20;7.17;;;5.97;;
11386;SDS011;5748;53.102;8.456;2023-02-22T10:25:59;7.10;;;5.93;;
11386;SDS011;5748;53.102;8.456;2023-02-22T10:28:40;7.53;;;6.07;;
11386;SDS011;5748;53.102;8.456;2023-02-22T10:31:17;6.60;;;5.50;;
11386;SDS011;5748;53.102;8.456;2023-02-22T10:33:52;7.53;;;6.17;;
11386;SDS011;5748;53.102;8.456;2023-02-22T10:36:24;7.23;;;5.70;;
11386;SDS011;5748;53.102;8.456;2023-02-22T10:38:53;7.80;;;5.87;;
11386;SDS011;5748;53.102;8.456;2023-02-22T10:41:26;6.90;;;5.60;;
11386;SDS011;5748;53.102;8.456;2023-02-22T10:43:56;6.00;;;5.30;;
11386;SDS011;5748;53.102;8.456;2023-02-22T10:46:25;7.00;;;5.77;;
11386;SDS011;5748;53.102;8.456;2023-02-22T10:48:55;7.03;;;5.60;;
11386;SDS011;5748;53.102;8.456;2023-02-22T10:51:28;6.77;;;5.60;;
11386;SDS011;5748;53.102;8.456;2023-02-22T10:53:57;6.70;;;4.87;;
11386;SDS011;5748;53.102;8.456;2023-02-22T10:56:46;5.47;;;4.60;;
11386;SDS011;5748;53.102;8.456;2023-02-22T10:59:25;5.50;;;4.43;;
11386;SDS011;5748;53.102;8.456;2023-02-22T11:01:56;5.90;;;4.53;;
11386;SDS011;5748;53.102;8.456;2023-02-22T11:04:24;5.53;;;4.33;;
11386;SDS011;5748;53.102;8.456;2023-02-22T11:07:06;5.97;;;5.03;;
11386;SDS011;5748;53.102;8.456;2023-02-22T11:09:46;7.57;;;5.80;;
11386;SDS011;5748;53.102;8.456;2023-02-22T11:12:18;6.03;;;5.00;;
11386;SDS011;5748;53.102;8.456;2023-02-22T11:14:51;6.73;;;5.07;;
11386;SDS011;5748;53.102;8.456;2023-02-22T11:17:21;5.67;;;4.77;;
11386;SDS011;5748;53.102;8.456;2023-02-22T11:19:55;6.68;;;5.05;;
11386;SDS011;5748;53.102;8.456;2023-02-22T11:22:24;5.40;;;4.63;;
11386;SDS011;5748;53.102;8.456;2023-02-22T11:24:56;5.28;;;4.47;;
11386;SDS011;5748;53.102;8.456;2023-02-22T11:27:36;6.13;;;5.32;;
11386;SDS011;5748;53.102;8.456;2023-02-22T11:30:10;6.80;;;5.40;;
11386;SDS011;5748;53.102;8.456;2023-02-22T11:32:53;5.47;;;4.75;;
11386;SDS011;5748;53.102;8.456;2023-02-22T11:35:31;6.03;;;5.00;;
11386;SDS011;5748;53.102;8.456;2023-02-22T11:38:12;5.77;;;4.90;;
11386;SDS011;5748;53.102;8.456;2023-02-22T11:40:45;5.90;;;4.83;;
11386;SDS011;5748;53.102;8.456;2023-02-22T11:43:33;6.97;;;5.60;;
11386;SDS011;5748;53.102;8.456;2023-02-22T11:46:01;6.30;;;5.47;;
11386;SDS011;5748;53.102;8.456;2023-02-22T11:48:32;6.13;;;5.20;;
11386;SDS011;5748;53.102;8.456;2023-02-22T11:51:12;5.67;;;4.97;;
11386;SDS011;5748;53.102;8.456;2023-02-22T11:53:52;5.80;;;4.75;;
11386;SDS011;5748;53.102;8.456;2023-02-22T11:56:43;5.67;;;4.97;;
11386;SDS011;5748;53.102;8.456;2023-02-22T11:59:20;4.60;;;4.03;;
11386;SDS011;5748;53.102;8.456;2023-02-22T12:02:00;5.60;;;4.90;;
11386;SDS011;5748;53.102;8.456;2023-02-22T12:05:01;5.40;;;4.60;;
11386;SDS011;5748;53.102;8.456;2023-02-22T12:07:53;5.87;;;4.70;;
11386;SDS011;5748;53.102;8.456;2023-02-22T12:10:34;4.80;;;4.30;;
11386;SDS011;5748;53.102;8.456;2023-02-22T12:13:20;5.77;;;5.17;;
11386;SDS011;5748;53.102;8.456;2023-02-22T12:16:03;5.50;;;4.60;;
11386;SDS011;5748;53.102;8.456;2023-02-22T12:18:43;5.47;;;4.57;;
11386;SDS011;5748;53.102;8.456;2023-02-22T12:21:27;5.27;;;4.30;;
11386;SDS011;5748;53.102;8.456;2023-02-22T12:23:57;6.60;;;5.20;;
11386;SDS011;5748;53.102;8.456;2023-02-22T12:26:32;5.40;;;4.53;;
11386;SDS011;5748;53.102;8.456;2023-02-22T12:29:03;5.83;;;4.87;;
11386;SDS011;5748;53.102;8.456;2023-02-22T12:31:40;5.77;;;4.63;;
11386;SDS011;5748;53.102;8.456;2023-02-22T12:34:12;6.30;;;4.87;;
11386;SDS011;5748;53.102;8.456;2023-02-22T12:36:52;6.63;;;4.93;;
11386;SDS011;5748;53.102;8.456;2023-02-22T12:39:29;6.33;;;5.20;;
11386;SDS011;5748;53.102;8.456;2023-02-22T12:42:10;5.63;;;4.80;;
11386;SDS011;5748;53.102;8.456;2023-02-22T12:44:43;5.20;;;4.33;;
11386;SDS011;5748;53.102;8.456;2023-02-22T12:47:20;5.80;;;4.90;;
11386;SDS011;5748;53.102;8.456;2023-02-22T12:49:56;6.73;;;5.00;;
11386;SDS011;5748;53.102;8.456;2023-02-22T12:52:33;6.90;;;5.73;;
11386;SDS011;5748;53.102;8.456;2023-02-22T12:55:08;5.80;;;5.20;;
11386;SDS011;5748;53.102;8.456;2023-02-22T12:57:41;6.53;;;5.63;;
11386;SDS011;5748;53.102;8.456;2023-02-22T13:00:15;5.97;;;4.53;;
11386;SDS011;5748;53.102;8.456;2023-02-22T13:02:55;5.40;;;4.60;;
11386;SDS011;5748;53.102;8.456;2023-02-22T13:05:27;5.57;;;4.70;;
11386;SDS011;5748;53.102;8.456;2023-02-22T13:08:12;5.50;;;4.80;;
11386;SDS011;5748;53.102;8.456;2023-02-22T13:10:55;5.83;;;4.60;;
11386;SDS011;5748;53.102;8.456;2023-02-22T13:13:38;6.13;;;5.27;;
11386;SDS011;5748;53.102;8.456;2023-02-22T13:16:33;6.63;;;5.13;;
11386;SDS011;5748;53.102;8.456;2023-02-22T13:19:27;6.30;;;5.23;;
11386;SDS011;5748;53.102;8.456;2023-02-22T13:22:05;5.90;;;5.17;;
11386;SDS011;5748;53.102;8.456;2023-02-22T13:24:41;5.77;;;4.80;;
11386;SDS011;5748;53.102;8.456;2023-02-22T13:27:21;6.53;;;4.80;;
11386;SDS011;5748;53.102;8.456;2023-02-22T13:29:54;5.87;;;4.87;;
11386;SDS011;5748;53.102;8.456;2023-02-22T13:35:25;5.00;;;4.50;;
11386;SDS011;5748;53.102;8.456;2023-02-22T13:38:17;6.17;;;4.67;;
11386;SDS011;5748;53.102;8.456;2023-02-22T13:41:14;5.80;;;4.77;;
11386;SDS011;5748;53.102;8.456;2023-02-22T13:44:14;4.97;;;4.13;;
11386;SDS011;5748;53.102;8.456;2023-02-22T13:50:23;5.70;;;4.63;;
11386;SDS011;5748;53.102;8.456;2023-02-22T13:53:22;5.70;;;4.83;;
11386;SDS011;5748;53.102;8.456;2023-02-22T13:55:54;4.97;;;4.40;;
11386;SDS011;5748;53.102;8.456;2023-02-22T13:58:24;7.27;;;5.00;;
11386;SDS011;5748;53.102;8.456;2023-02-22T14:00:52;5.47;;;4.70;;
11386;SDS011;5748;53.102;8.456;2023-02-22T14:03:29;6.97;;;5.20;;
11386;SDS011;5748;53.102;8.456;2023-02-22T14:06:06;4.60;;;4.20;;
11386;SDS011;5748;53.102;8.456;2023-02-22T14:08:41;6.67;;;5.50;;
11386;SDS011;5748;53.102;8.456;2023-02-22T14:14:22;5.40;;;4.17;;
11386;SDS011;5748;53.102;8.456;2023-02-22T14:19:59;5.23;;;4.53;;
11386;SDS011;5748;53.102;8.456;2023-02-22T14:26:08;5.20;;;4.40;;
11386;SDS011;5748;53.102;8.456;2023-02-22T14:28:40;6.33;;;4.73;;
11386;SDS011;5748;53.102;8.456;2023-02-22T14:31:18;5.30;;;4.80;;
11386;SDS011;5748;53.102;8.456;2023-02-22T14:33:52;6.60;;;5.00;;
11386;SDS011;5748;53.102;8.456;2023-02-22T14:36:27;6.83;;;5.57;;
11386;SDS011;5748;53.102;8.456;2023-02-22T14:39:05;5.20;;;4.70;;
11386;SDS011;5748;53.102;8.456;2023-02-22T14:41:44;5.50;;;4.47;;
11386;SDS011;5748;53.102;8.456;2023-02-22T14:44:19;5.57;;;4.63;;
11386;SDS011;5748;53.102;8.456;2023-02-22T14:46:51;6.03;;;5.33;;
11386;SDS011;5748;53.102;8.456;2023-02-22T14:49:22;6.30;;;5.13;;
11386;SDS011;5748;53.102;8.456;2023-02-22T14:51:53;5.90;;;4.93;;
11386;SDS011;5748;53.102;8.456;2023-02-22T14:54:29;5.70;;;5.10;;
11386;SDS011;5748;53.102;8.456;2023-02-22T14:57:06;5.97;;;5.20;;
11386;SDS011;5748;53.102;8.456;2023-02-22T14:59:45;5.10;;;4.60;;
11386;SDS011;5748;53.102;8.456;2023-02-22T15:02:21;5.97;;;4.40;;
11386;SDS011;5748;53.102;8.456;2023-02-22T15:04:50;4.87;;;4.20;;
11386;SDS011;5748;53.102;8.456;2023-02-22T15:07:20;5.90;;;4.67;;
11386;SDS011;5748;53.102;8.456;2023-02-22T15:09:54;4.30;;;3.90;;
11386;SDS011;5748;53.102;8.456;2023-02-22T15:12:33;5.40;;;4.50;;
11386;SDS011;5748;53.102;8.456;2023-02-22T15:15:09;5.00;;;4.30;;
11386;SDS011;5748;53.102;8.456;2023-02-22T15:17:38;4.50;;;4.10;;
11386;SDS011;5748;53.102;8.456;2023-02-22T15:20:11;4.97;;;4.03;;
11386;SDS011;5748;53.102;8.456;2023-02-22T15:22:41;6.00;;;4.87;;
11386;SDS011;5748;53.102;8.456;2023-02-22T15:25:10;5.40;;;4.80;;
11386;SDS011;5748;53.102;8.456;2023-02-22T15:27:37;6.50;;;4.23;;
11386;SDS011;5748;53.102;8.456;2023-02-22T15:30:20;4.83;;;4.33;;
11386;SDS011;5748;53.102;8.456;2023-02-22T15:32:51;5.63;;;4.50;;
11386;SDS011;5748;53.102;8.456;2023-02-22T15:35:19;5.03;;;4.47;;
11386;SDS011;5748;53.102;8.456;2023-02-22T15:37:59;4.70;;;4.20;;
11386;SDS011;5748;53.102;8.456;2023-02-22T15:40:31;5.77;;;4.53;;
11386;SDS011;5748;53.102;8.456;2023-02-22T15:43:04;5.77;;;4.50;;
11386;SDS011;5748;53.102;8.456;2023-02-22T15:45:33;4.90;;;4.17;;
11386;SDS011;5748;53.102;8.456;2023-02-22T15:48:07;4.30;;;3.90;;
11386;SDS011;5748;53.102;8.456;2023-02-22T15:50:34;5.27;;;4.43;;
11386;SDS011;5748;53.102;8.456;2023-02-22T15:53:03;4.93;;;4.43;;
11386;SDS011;5748;53.102;8.456;2023-02-22T15:55:36;5.87;;;5.20;;
11386;SDS011;5748;53.102;8.456;2023-02-22T15:58:10;5.13;;;4.30;;
11386;SDS011;5748;53.102;8.456;2023-02-22T16:00:49;5.27;;;4.77;;
11386;SDS011;5748;53.102;8.456;2023-02-22T16:03:31;5.33;;;4.33;;
11386;SDS011;5748;53.102;8.456;2023-02-22T16:06:29;4.83;;;4.03;;
11386;SDS011;5748;53.102;8.456;2023-02-22T16:09:00;4.73;;;4.17;;
11386;SDS011;5748;53.102;8.456;2023-02-22T16:11:36;4.70;;;4.17;;
11386;SDS011;5748;53.102;8.456;2023-02-22T16:14:23;6.67;;;4.40;;
11386;SDS011;5748;53.102;8.456;2023-02-22T16:19:55;4.90;;;4.40;;
11386;SDS011;5748;53.102;8.456;2023-02-22T16:22:37;5.03;;;4.53;;
11386;SDS011;5748;53.102;8.456;2023-02-22T16:25:22;5.10;;;4.60;;
11386;SDS011;5748;53.102;8.456;2023-02-22T16:30:55;4.73;;;4.27;;
11386;SDS011;5748;53.102;8.456;2023-02-22T16:33:27;4.83;;;4.33;;
11386;SDS011;5748;53.102;8.456;2023-02-22T16:36:05;5.67;;;4.63;;
11386;SDS011;5748;53.102;8.456;2023-02-22T16:38:34;6.23;;;4.93;;
11386;SDS011;5748;53.102;8.456;2023-02-22T16:41:03;5.40;;;4.40;;